Time;durP1;ratioP1;P1;durP2;ratioP2;P2;SDS_P1;SDS_P2;PMS_P1;PMS_P2;Temp;Humidity;BMP_temperature;BMP_pressure;BME280_temperature;BME280_humidity;BME280_pressure;Samples;Min_cycle;Max_cycle;Signal;HPM_P1;HPM_P2
2022/01/05 00:02:18;;;;;;;0.20;0.20;;;2.40;99.90;;;;;;5129888;28;20474;-79
2022/01/05 00:04:47;;;;;;;0.20;0.20;;;2.00;99.90;;;;;;5130174;28;20036;-78
2022/01/05 00:07:13;;;;;;;0.10;0.10;;;3.00;99.90;;;;;;5096749;28;20873;-79
2022/01/05 00:09:40;;;;;;;0.20;0.20;;;2.30;99.90;;;;;;5113182;28;20051;-78
2022/01/05 00:12:07;;;;;;;0.10;0.10;;;1.90;99.90;;;;;;5113480;28;20720;-81
2022/01/05 00:14:34;;;;;;;0.10;0.10;;;1.90;99.90;;;;;;5096817;28;20075;-78
2022/01/05 00:17:01;;;;;;;0.10;0.10;;;2.80;99.90;;;;;;5096391;28;20514;-81
2022/01/05 00:19:28;;;;;;;0.15;0.15;;;2.60;99.90;;;;;;5096081;28;20143;-81
2022/01/05 00:21:54;;;;;;;0.20;0.20;;;1.90;99.90;;;;;;5129852;28;20043;-78
2022/01/05 00:24:21;;;;;;;0.13;0.13;;;1.90;99.90;;;;;;5096391;28;20038;-80
2022/01/05 00:26:48;;;;;;;0.20;0.20;;;2.90;99.90;;;;;;5113393;28;20032;-81
2022/01/05 00:29:14;;;;;;;0.20;0.20;;;1.90;99.90;;;;;;5096179;28;20031;-78
2022/01/05 00:31:41;;;;;;;0.20;0.20;;;1.90;99.90;;;;;;5129878;28;20039;-78
2022/01/05 00:34:08;;;;;;;0.20;0.20;;;2.80;99.90;;;;;;5129982;28;20086;-80
2022/01/05 00:36:34;;;;;;;0.10;0.10;;;1.80;99.90;;;;;;5129590;28;20069;-81
2022/01/05 00:39:02;;;;;;;0.10;0.10;;;1.90;99.90;;;;;;5129729;28;20050;-81
2022/01/05 00:41:29;;;;;;;0.20;0.20;;;2.60;99.90;;;;;;5146256;28;20047;-80
2022/01/05 00:43:55;;;;;;;0.10;0.10;;;1.90;99.90;;;;;;5129921;28;20039;-78
2022/01/05 00:46:22;;;;;;;0.20;0.20;;;2.60;99.90;;;;;;5146282;28;20126;-79
2022/01/05 00:48:49;;;;;;;0.20;0.20;;;1.80;99.90;;;;;;5129950;28;20049;-78
2022/01/05 00:51:16;;;;;;;0.20;0.20;;;1.80;99.90;;;;;;5113024;28;20076;-78
2022/01/05 00:53:43;;;;;;;0.20;0.20;;;1.70;99.90;;;;;;5129822;28;20445;-78
2022/01/05 00:56:10;;;;;;;0.20;0.20;;;1.80;99.90;;;;;;5113034;28;20043;-78
2022/01/05 00:58:37;;;;;;;0.20;0.20;;;1.70;99.90;;;;;;5112388;28;20032;-80
2022/01/05 01:01:03;;;;;;;0.20;0.20;;;2.50;99.90;;;;;;5132722;28;20036;-78
2022/01/05 01:03:30;;;;;;;0.20;0.20;;;2.00;99.90;;;;;;5133176;28;20035;-81
2022/01/05 01:06:01;;;;;;;0.17;0.17;;;1.70;99.90;;;;;;5099901;28;20035;-81
2022/01/05 01:08:27;;;;;;;0.20;0.20;;;2.50;99.90;;;;;;5100921;28;20042;-78
2022/01/05 01:10:54;;;;;;;0.20;0.20;;;2.50;99.90;;;;;;5150748;28;20130;-81
2022/01/05 01:13:21;;;;;;;0.20;0.20;;;2.30;99.90;;;;;;5099664;28;20366;-80
2022/01/05 01:15:49;;;;;;;0.20;0.20;;;1.70;99.90;;;;;;5132879;28;20047;-81
2022/01/05 01:18:17;;;;;;;0.20;0.20;;;1.70;99.90;;;;;;5150093;28;20069;-78
2022/01/05 01:20:47;;;;;;;0.20;0.20;;;1.80;99.90;;;;;;5149627;28;20074;-81
2022/01/05 01:23:18;;;;;;;0.10;0.10;;;1.80;99.90;;;;;;5117318;28;20043;-78
2022/01/05 01:25:44;;;;;;;0.10;0.10;;;1.80;99.90;;;;;;5133422;28;20051;-80
2022/01/05 01:28:11;;;;;;;0.20;0.20;;;1.80;99.90;;;;;;5167551;27;20435;-79
2022/01/05 01:30:38;;;;;;;0.20;0.20;;;1.80;99.90;;;;;;5115965;28;20512;-78
2022/01/05 01:33:05;;;;;;;0.10;0.10;;;1.90;99.90;;;;;;5167215;27;20043;-81
2022/01/05 01:35:32;;;;;;;0.20;0.20;;;1.90;99.90;;;;;;5132815;28;20047;-79
2022/01/05 01:37:58;;;;;;;0.20;0.20;;;1.90;99.90;;;;;;5116392;28;20040;-78
2022/01/05 01:40:25;;;;;;;0.20;0.20;;;1.80;99.90;;;;;;5150287;28;20134;-79
2022/01/05 01:42:52;;;;;;;0.20;0.20;;;2.30;99.90;;;;;;5149980;28;20605;-79
2022/01/05 01:45:19;;;;;;;0.20;0.20;;;1.90;99.90;;;;;;5116006;28;20040;-79
2022/01/05 01:47:46;;;;;;;0.20;0.20;;;1.90;99.90;;;;;;5115832;28;20046;-81
2022/01/05 01:50:13;;;;;;;0.20;0.20;;;2.10;99.90;;;;;;5133299;28;20108;-81
2022/01/05 01:52:40;;;;;;;0.17;0.17;;;1.90;99.90;;;;;;5149742;28;20540;-81
2022/01/05 01:55:08;;;;;;;0.20;0.20;;;1.90;99.90;;;;;;5116018;28;20039;-78
2022/01/05 01:57:38;;;;;;;0.10;0.10;;;1.90;99.90;;;;;;5116022;28;20135;-81
2022/01/05 02:00:07;;;;;;;0.20;0.20;;;1.90;99.90;;;;;;5166826;27;20036;-78
2022/01/05 02:02:35;;;;;;;0.20;0.20;;;2.00;99.90;;;;;;5166503;27;20051;-78
2022/01/05 02:05:03;;;;;;;0.20;0.20;;;2.00;99.90;;;;;;5166663;27;20044;-79
2022/01/05 02:07:30;;;;;;;0.20;0.20;;;1.90;99.90;;;;;;5149055;28;20676;-78
2022/01/05 02:09:56;;;;;;;0.20;0.20;;;2.30;99.90;;;;;;5132793;28;20051;-81
2022/01/05 02:12:26;;;;;;;0.20;0.20;;;2.50;99.90;;;;;;5115632;28;20700;-81
2022/01/05 02:14:54;;;;;;;0.20;0.20;;;2.00;99.90;;;;;;5115472;28;20089;-79
2022/01/05 02:17:24;;;;;;;0.20;0.20;;;2.00;99.90;;;;;;5149557;28;20035;-78
2022/01/05 02:19:51;;;;;;;0.20;0.20;;;2.50;99.90;;;;;;5166221;27;20039;-79
2022/01/05 02:22:18;;;;;;;0.20;0.20;;;2.00;99.90;;;;;;5149495;28;20054;-81
2022/01/05 02:24:47;;;;;;;0.10;0.10;;;1.90;99.90;;;;;;5148750;28;20136;-78
2022/01/05 02:27:15;;;;;;;0.20;0.20;;;3.00;99.90;;;;;;5148982;28;20047;-78
2022/01/05 02:29:42;;;;;;;0.20;0.20;;;1.90;99.90;;;;;;5131426;28;20507;-81
2022/01/05 02:32:09;;;;;;;0.10;0.10;;;1.90;99.90;;;;;;5148710;28;20549;-78
2022/01/05 02:34:36;;;;;;;0.10;0.10;;;2.60;99.90;;;;;;5131551;28;20201;-78
2022/01/05 02:37:03;;;;;;;0.15;0.15;;;1.90;99.90;;;;;;5132185;28;20061;-80
2022/01/05 02:39:29;;;;;;;0.20;0.20;;;1.80;99.90;;;;;;5166402;27;20044;-80
2022/01/05 02:41:56;;;;;;;0.20;0.20;;;1.80;99.90;;;;;;5131323;28;20043;-79
2022/01/05 02:44:23;;;;;;;0.20;0.20;;;1.80;99.90;;;;;;5114586;28;20580;-80
2022/01/05 02:46:49;;;;;;;0.20;0.20;;;2.00;99.90;;;;;;5131323;28;20066;-79
2022/01/05 02:49:16;;;;;;;0.20;0.20;;;2.20;99.90;;;;;;5131526;28;20032;-78
2022/01/05 02:51:43;;;;;;;0.20;0.20;;;2.70;99.90;;;;;;5131399;28;20080;-81
2022/01/05 02:54:09;;;;;;;0.22;0.22;;;1.80;99.90;;;;;;5131798;28;20127;-78
2022/01/05 02:56:36;;;;;;;0.20;0.20;;;1.80;99.90;;;;;;5148278;28;20039;-78
2022/01/05 02:59:03;;;;;;;0.10;0.10;;;2.00;99.90;;;;;;5131652;28;20522;-78
2022/01/05 03:01:31;;;;;;;0.20;0.20;;;1.90;99.90;;;;;;5131673;28;20039;-78
2022/01/05 03:03:57;;;;;;;0.20;0.20;;;2.20;99.90;;;;;;5114276;28;20047;-79
2022/01/05 03:06:24;;;;;;;0.20;0.20;;;2.60;99.90;;;;;;5114610;28;20035;-78
2022/01/05 03:08:51;;;;;;;0.10;0.10;;;1.90;99.90;;;;;;5147898;28;20032;-78
2022/01/05 03:11:18;;;;;;;0.30;0.30;;;2.30;99.90;;;;;;5130856;28;20059;-78
2022/01/05 03:13:44;;;;;;;0.20;0.20;;;2.50;99.90;;;;;;5114232;28;20035;-80
2022/01/05 03:16:11;;;;;;;0.20;0.20;;;1.90;99.90;;;;;;5114304;28;20484;-79
2022/01/05 03:18:38;;;;;;;0.20;0.20;;;1.90;99.90;;;;;;5164654;27;20043;-78
2022/01/05 03:21:04;;;;;;;0.20;0.20;;;1.90;99.90;;;;;;5131373;28;20039;-79
2022/01/05 03:23:31;;;;;;;0.20;0.20;;;3.00;99.90;;;;;;5130904;28;20508;-79
2022/01/05 03:25:58;;;;;;;0.20;0.20;;;1.90;99.90;;;;;;5130361;28;20517;-81
2022/01/05 03:28:24;;;;;;;0.20;0.20;;;1.90;99.90;;;;;;5148038;28;20035;-78
2022/01/05 03:30:51;;;;;;;0.22;0.22;;;1.90;99.90;;;;;;5147344;28;20121;-81
2022/01/05 03:33:21;;;;;;;0.20;0.20;;;2.00;99.90;;;;;;5147585;28;20081;-81
2022/01/05 03:35:48;;;;;;;0.20;0.20;;;2.00;99.90;;;;;;5147706;27;20086;-78
2022/01/05 03:38:17;;;;;;;0.20;0.20;;;1.90;99.90;;;;;;5130724;28;20518;-80
2022/01/05 03:40:46;;;;;;;0.20;0.20;;;2.00;99.90;;;;;;5147381;28;20082;-79
2022/01/05 03:43:13;;;;;;;0.10;0.10;;;2.50;99.90;;;;;;5164736;27;20040;-81
2022/01/05 03:45:40;;;;;;;0.25;0.25;;;2.90;99.90;;;;;;5147646;28;20778;-78
2022/01/05 03:48:10;;;;;;;0.20;0.20;;;2.50;99.90;;;;;;5147606;28;20510;-81
2022/01/05 03:50:37;;;;;;;0.20;0.20;;;2.10;99.90;;;;;;5147403;28;20040;-80
2022/01/05 03:53:04;;;;;;;0.15;0.15;;;3.20;99.90;;;;;;5164391;27;20391;-79
2022/01/05 03:55:33;;;;;;;0.40;0.40;;;2.20;99.90;;;;;;5130398;28;20048;-80
2022/01/05 03:58:00;;;;;;;0.20;0.20;;;2.30;99.90;;;;;;5130284;28;20039;-78
2022/01/05 04:00:29;;;;;;;0.20;0.20;;;2.40;99.90;;;;;;5147368;28;20050;-80
2022/01/05 04:02:57;;;;;;;0.10;0.10;;;2.30;99.90;;;;;;5113367;28;20044;-81
2022/01/05 04:05:24;;;;;;;0.20;0.20;;;2.30;99.90;;;;;;5130655;28;20079;-78
2022/01/05 04:07:53;;;;;;;0.20;0.20;;;2.40;99.90;;;;;;5130281;28;20083;-78
2022/01/05 04:10:20;;;;;;;0.20;0.20;;;2.40;99.90;;;;;;5130282;28;20523;-81
2022/01/05 04:12:48;;;;;;;0.20;0.20;;;2.40;99.90;;;;;;5147085;28;20047;-79
2022/01/05 04:15:16;;;;;;;0.50;0.50;;;3.10;99.90;;;;;;5164607;27;20054;-80
2022/01/05 04:17:43;;;;;;;0.20;0.20;;;3.20;99.90;;;;;;5113595;28;20055;-78
2022/01/05 04:20:12;;;;;;;0.32;0.30;;;3.40;99.90;;;;;;5113343;28;20050;-81
2022/01/05 04:22:39;;;;;;;0.20;0.20;;;2.40;99.90;;;;;;5164480;27;20512;-79
2022/01/05 04:25:07;;;;;;;0.10;0.10;;;3.10;99.90;;;;;;5163646;27;20504;-81
2022/01/05 04:27:34;;;;;;;0.10;0.10;;;2.40;99.90;;;;;;5181043;27;20048;-80
2022/01/05 04:30:01;;;;;;;0.20;0.20;;;2.70;99.90;;;;;;5146717;28;20484;-79
2022/01/05 04:32:27;;;;;;;0.10;0.10;;;2.30;99.90;;;;;;5146862;28;20146;-81
2022/01/05 04:34:54;;;;;;;0.10;0.10;;;3.10;99.90;;;;;;5128405;28;20126;-78
2022/01/05 04:37:22;;;;;;;0.10;0.10;;;2.30;99.90;;;;;;5147179;28;20126;-78
2022/01/05 04:39:49;;;;;;;0.10;0.10;;;2.40;99.90;;;;;;5113247;28;20184;-78
2022/01/05 04:42:16;;;;;;;0.17;0.17;;;2.40;99.90;;;;;;5113373;28;20036;-78
2022/01/05 04:44:42;;;;;;;0.10;0.10;;;2.40;99.90;;;;;;5163546;27;20127;-79
2022/01/05 04:47:11;;;;;;;0.10;0.10;;;2.40;99.90;;;;;;5112540;28;20047;-79
2022/01/05 04:49:38;;;;;;;0.20;0.20;;;3.30;99.90;;;;;;5146831;28;20049;-78
2022/01/05 04:52:05;;;;;;;0.20;0.20;;;2.60;99.90;;;;;;5146157;28;20035;-78
2022/01/05 04:54:32;;;;;;;0.10;0.10;;;2.40;99.90;;;;;;5163264;28;20044;-81
2022/01/05 04:56:59;;;;;;;0.10;0.10;;;2.40;99.90;;;;;;5129174;28;20131;-78
2022/01/05 04:59:26;;;;;;;0.20;0.20;;;2.40;99.90;;;;;;5146763;28;20039;-81
2022/01/05 05:01:52;;;;;;;0.17;0.17;;;2.90;99.90;;;;;;5145909;28;20460;-79
2022/01/05 05:04:19;;;;;;;0.20;0.20;;;2.80;99.90;;;;;;5112719;28;20448;-82
2022/01/05 05:06:46;;;;;;;0.10;0.10;;;2.50;99.90;;;;;;5163409;28;20496;-81
2022/01/05 05:09:13;;;;;;;0.10;0.10;;;2.60;99.90;;;;;;5163138;28;20043;-81
2022/01/05 05:11:40;;;;;;;0.20;0.20;;;2.60;99.90;;;;;;5146702;28;20040;-78
2022/01/05 05:14:07;;;;;;;0.13;0.13;;;3.00;99.90;;;;;;5112157;28;20043;-81
2022/01/05 05:16:33;;;;;;;0.10;0.10;;;2.60;99.90;;;;;;5146497;28;20036;-81
2022/01/05 05:19:00;;;;;;;0.20;0.20;;;2.70;99.90;;;;;;5129038;28;20040;-81
2022/01/05 05:21:27;;;;;;;0.10;0.10;;;2.60;99.90;;;;;;5112606;28;20075;-81
2022/01/05 05:23:53;;;;;;;0.20;0.20;;;2.60;99.90;;;;;;5129232;28;20048;-81
2022/01/05 05:26:20;;;;;;;0.10;0.10;;;2.60;99.90;;;;;;5112725;28;20036;-78
2022/01/05 05:28:47;;;;;;;0.20;0.20;;;2.70;99.90;;;;;;5146841;28;20035;-78
2022/01/05 05:31:14;;;;;;;0.13;0.13;;;2.70;99.90;;;;;;5128790;28;20571;-81
2022/01/05 05:33:41;;;;;;;0.20;0.20;;;3.50;99.90;;;;;;5129728;28;20040;-78
2022/01/05 05:36:08;;;;;;;0.20;0.20;;;2.70;99.90;;;;;;5146089;28;20134;-79
2022/01/05 05:38:35;;;;;;;0.20;0.20;;;3.00;99.90;;;;;;5112591;28;20075;-78
2022/01/05 05:41:01;;;;;;;0.20;0.20;;;2.70;99.90;;;;;;5112420;28;20086;-78
2022/01/05 05:43:28;;;;;;;0.10;0.10;;;2.80;99.90;;;;;;5140470;28;20035;-78
2022/01/05 05:45:55;;;;;;;0.10;0.10;;;2.80;99.90;;;;;;5113404;28;20075;-79
2022/01/05 05:48:22;;;;;;;0.10;0.10;;;2.90;99.90;;;;;;5115874;28;20126;-78
2022/01/05 05:50:48;;;;;;;0.10;0.10;;;3.10;99.90;;;;;;5149891;28;20720;-81
2022/01/05 05:53:15;;;;;;;0.13;0.13;;;3.80;99.90;;;;;;5115537;28;20071;-81
2022/01/05 05:55:42;;;;;;;0.20;0.20;;;3.20;99.90;;;;;;5115872;28;20051;-81
2022/01/05 05:58:08;;;;;;;0.17;0.17;;;3.10;99.90;;;;;;5115609;28;20047;-81
2022/01/05 06:00:35;;;;;;;0.10;0.10;;;3.10;99.90;;;;;;5149785;28;20134;-78
2022/01/05 06:03:02;;;;;;;0.20;0.20;;;3.20;99.90;;;;;;5149314;28;20051;-81
2022/01/05 06:05:29;;;;;;;0.10;0.10;;;3.20;99.90;;;;;;5132832;28;20095;-80
2022/01/05 06:07:55;;;;;;;0.20;0.20;;;4.00;99.90;;;;;;5115540;28;20092;-80
2022/01/05 06:10:22;;;;;;;0.10;0.10;;;3.30;99.90;;;;;;5131498;28;20123;-81
2022/01/05 06:12:49;;;;;;;0.20;0.20;;;3.70;99.90;;;;;;5112572;28;20097;-77
2022/01/05 06:15:16;;;;;;;0.20;0.20;;;3.70;99.90;;;;;;5128137;28;20044;-81
2022/01/05 06:17:42;;;;;;;0.20;0.20;;;3.20;99.90;;;;;;5111527;28;20043;-78
2022/01/05 06:20:10;;;;;;;0.10;0.10;;;3.00;99.90;;;;;;5120173;28;20125;-81
2022/01/05 06:22:39;;;;;;;0.20;0.20;;;3.00;99.90;;;;;;5104907;28;20051;-81
2022/01/05 06:25:06;;;;;;;0.10;0.10;;;2.90;99.90;;;;;;5103911;28;20047;-78
2022/01/05 06:27:33;;;;;;;0.10;0.10;;;3.00;99.90;;;;;;5160523;27;20506;-81
2022/01/05 06:30:04;;;;;;;0.13;0.13;;;2.90;99.90;;;;;;5131654;28;20032;-79
2022/01/05 06:32:31;;;;;;;0.10;0.10;;;2.90;99.90;;;;;;5099679;28;20031;-80
2022/01/05 06:34:57;;;;;;;0.10;0.10;;;2.90;99.90;;;;;;5162752;27;20399;-78
2022/01/05 06:37:24;;;;;;;0.10;0.10;;;2.90;99.90;;;;;;5114451;28;20043;-81
2022/01/05 06:39:51;;;;;;;0.10;0.10;;;2.90;99.90;;;;;;5149094;27;20047;-78
2022/01/05 06:42:17;;;;;;;0.10;0.10;;;3.50;99.90;;;;;;5132005;28;20043;-78
2022/01/05 06:44:44;;;;;;;0.10;0.10;;;3.00;99.90;;;;;;5148613;28;20534;-81
2022/01/05 06:47:11;;;;;;;0.20;0.20;;;3.00;99.90;;;;;;5131619;28;20054;-78
2022/01/05 06:49:38;;;;;;;0.20;0.20;;;3.00;99.90;;;;;;5131795;28;20067;-81
2022/01/05 06:52:05;;;;;;;0.20;0.20;;;3.30;99.90;;;;;;5131497;28;20035;-78
2022/01/05 06:54:31;;;;;;;0.10;0.10;;;3.00;99.90;;;;;;5148576;28;20384;-78
2022/01/05 06:56:58;;;;;;;0.10;0.10;;;3.00;99.90;;;;;;5097312;28;20478;-78
2022/01/05 06:59:25;;;;;;;0.10;0.10;;;3.10;99.90;;;;;;5113863;28;20042;-78
2022/01/05 07:01:52;;;;;;;0.10;0.10;;;3.20;99.90;;;;;;5131439;28;20047;-81
2022/01/05 07:04:18;;;;;;;0.20;0.20;;;3.40;99.90;;;;;;5130654;28;20047;-80
2022/01/05 07:06:45;;;;;;;0.10;0.10;;;3.10;99.90;;;;;;5114573;28;20127;-78
2022/01/05 07:09:12;;;;;;;0.10;0.10;;;3.60;99.90;;;;;;5131047;28;20045;-78
2022/01/05 07:11:40;;;;;;;0.10;0.10;;;3.10;99.90;;;;;;5110569;28;20044;-81
2022/01/05 07:14:07;;;;;;;0.20;0.20;;;3.20;99.90;;;;;;5156375;27;20043;-81
2022/01/05 07:16:33;;;;;;;0.15;0.15;;;3.20;99.90;;;;;;5147608;28;20036;-81
2022/01/05 07:19:00;;;;;;;0.10;0.10;;;3.20;99.90;;;;;;5148646;28;20093;-81
2022/01/05 07:21:29;;;;;;;0.20;0.20;;;3.30;99.90;;;;;;5165084;27;20047;-78
2022/01/05 07:23:56;;;;;;;0.13;0.13;;;3.30;99.90;;;;;;5114374;28;20111;-80
2022/01/05 07:26:24;;;;;;;0.10;0.10;;;3.40;99.90;;;;;;5113964;28;20043;-78
2022/01/05 07:28:50;;;;;;;0.10;0.10;;;3.40;99.90;;;;;;5148047;28;20039;-78
2022/01/05 07:31:17;;;;;;;0.10;0.10;;;3.30;99.90;;;;;;5144595;28;20498;-80
2022/01/05 07:33:44;;;;;;;0.17;0.17;;;4.10;99.90;;;;;;5114263;28;20571;-78
2022/01/05 07:36:11;;;;;;;0.10;0.10;;;4.30;99.90;;;;;;5096058;28;20044;-78
2022/01/05 07:38:38;;;;;;;0.10;0.10;;;3.80;99.90;;;;;;5156184;27;20043;-78
2022/01/05 07:41:05;;;;;;;0.10;0.10;;;3.40;99.90;;;;;;5132179;28;20047;-81
2022/01/05 07:43:31;;;;;;;0.10;0.10;;;4.10;99.90;;;;;;5112965;28;20092;-78
2022/01/05 07:45:59;;;;;;;0.10;0.10;;;4.00;99.90;;;;;;5130375;28;20039;-80
2022/01/05 07:48:25;;;;;;;0.10;0.10;;;3.50;99.90;;;;;;5110189;28;20032;-78
2022/01/05 07:50:52;;;;;;;0.10;0.10;;;4.40;99.90;;;;;;5131016;28;20044;-78
2022/01/05 07:53:19;;;;;;;0.10;0.10;;;3.50;99.90;;;;;;5131508;28;20035;-78
2022/01/05 07:55:47;;;;;;;0.10;0.10;;;3.50;99.90;;;;;;5130393;28;20047;-81
2022/01/05 07:58:14;;;;;;;0.10;0.10;;;3.50;99.90;;;;;;5146954;28;20067;-81
2022/01/05 08:00:41;;;;;;;0.20;0.20;;;4.40;99.90;;;;;;5129810;28;20082;-77
2022/01/05 08:03:07;;;;;;;0.10;0.10;;;3.60;99.90;;;;;;5113480;28;20039;-78
2022/01/05 08:05:34;;;;;;;0.10;0.10;;;3.60;99.90;;;;;;5125791;28;20825;-81
2022/01/05 08:08:01;;;;;;;0.10;0.10;;;3.60;99.90;;;;;;5112198;28;20130;-79
2022/01/05 08:10:28;;;;;;;0.20;0.20;;;4.30;99.90;;;;;;5128966;28;20047;-83
2022/01/05 08:12:54;;;;;;;0.10;0.10;;;3.60;99.90;;;;;;5147066;28;20047;-80
2022/01/05 08:15:21;;;;;;;0.10;0.10;;;4.50;99.90;;;;;;5128927;28;20039;-81
2022/01/05 08:17:48;;;;;;;0.10;0.10;;;4.60;99.90;;;;;;5113159;28;20126;-81
2022/01/05 08:20:15;;;;;;;0.20;0.20;;;3.60;99.90;;;;;;5129679;28;20035;-79
2022/01/05 08:22:43;;;;;;;0.20;0.20;;;3.80;99.90;;;;;;5145302;28;20389;-79
2022/01/05 08:25:15;;;;;;;0.10;0.10;;;3.70;99.90;;;;;;5113149;28;20036;-79
2022/01/05 08:27:48;;;;;;;0.20;0.20;;;4.50;99.90;;;;;;5155435;27;20040;-82
2022/01/05 08:30:19;;;;;;;0.20;0.20;;;4.40;99.90;;;;;;5158024;27;20039;-81
2022/01/05 08:32:47;;;;;;;0.10;0.10;;;3.80;99.90;;;;;;5146573;28;20044;-79
2022/01/05 08:35:15;;;;;;;0.10;0.10;;;3.80;99.90;;;;;;5109083;28;20046;-81
2022/01/05 08:37:46;;;;;;;0.20;0.20;;;3.90;99.90;;;;;;5128960;28;20036;-79
2022/01/05 08:40:23;;;;;;;0.20;0.20;;;4.00;99.90;;;;;;5160490;27;20043;-79
2022/01/05 08:42:50;;;;;;;0.10;0.10;;;4.30;99.90;;;;;;5129452;28;20434;-79
2022/01/05 08:45:18;;;;;;;0.10;0.10;;;4.00;99.90;;;;;;5129076;28;20040;-81
2022/01/05 08:47:49;;;;;;;0.10;0.10;;;4.00;99.90;;;;;;5129379;28;20122;-82
2022/01/05 08:50:19;;;;;;;0.10;0.10;;;4.30;99.90;;;;;;5129153;28;20064;-80
2022/01/05 08:52:47;;;;;;;0.10;0.10;;;4.00;99.90;;;;;;5125228;28;20043;-82
2022/01/05 08:55:15;;;;;;;0.10;0.10;;;4.00;99.90;;;;;;5109121;28;20040;-79
2022/01/05 08:57:42;;;;;;;0.20;0.20;;;4.00;99.90;;;;;;5122392;28;20096;-81
2022/01/05 09:00:10;;;;;;;0.10;0.10;;;4.00;99.90;;;;;;5145177;28;20130;-79
2022/01/05 09:02:37;;;;;;;0.10;0.10;;;4.00;99.90;;;;;;5127729;28;20122;-79
2022/01/05 09:05:05;;;;;;;0.17;0.17;;;4.00;99.90;;;;;;5128688;28;20051;-81
2022/01/05 09:07:32;;;;;;;0.10;0.10;;;4.00;99.90;;;;;;5145512;28;20078;-81
2022/01/05 09:09:59;;;;;;;0.10;0.10;;;4.00;99.90;;;;;;5128626;28;20131;-79
2022/01/05 09:12:26;;;;;;;0.10;0.10;;;3.90;99.90;;;;;;5129768;28;20540;-79
2022/01/05 09:14:52;;;;;;;0.10;0.10;;;4.00;99.90;;;;;;5161739;28;20047;-81
2022/01/05 09:17:20;;;;;;;0.10;0.10;;;4.60;99.90;;;;;;5129243;28;20044;-81
2022/01/05 09:19:47;;;;;;;0.10;0.10;;;4.50;99.90;;;;;;5111801;28;20488;-81
2022/01/05 09:22:16;;;;;;;0.10;0.10;;;4.20;99.90;;;;;;5114786;28;20134;-83
2022/01/05 09:24:43;;;;;;;0.10;0.10;;;4.20;99.90;;;;;;5150127;27;20419;-79
2022/01/05 09:27:09;;;;;;;0.10;0.10;;;5.10;99.90;;;;;;5116552;28;20039;-81
2022/01/05 09:29:37;;;;;;;0.10;0.10;;;4.30;99.90;;;;;;5115973;28;20087;-83
2022/01/05 09:32:08;;;;;;;0.10;0.10;;;4.70;99.90;;;;;;5133684;28;20038;-83
2022/01/05 09:34:40;;;;;;;0.20;0.20;;;4.40;99.90;;;;;;5151093;27;20045;-81
2022/01/05 09:37:19;;;;;;;0.10;0.10;;;4.40;99.90;;;;;;5150715;27;20071;-85
2022/01/05 09:42:31;;;;;;;0.10;0.10;;;4.50;99.90;;;;;;5135718;28;20044;-84
2022/01/05 09:44:59;;;;;;;0.10;0.10;;;4.60;99.90;;;;;;5116510;28;20075;-85
2022/01/05 09:47:32;;;;;;;0.10;0.10;;;4.60;99.90;;;;;;5115972;28;20408;-85
2022/01/05 09:50:03;;;;;;;0.10;0.10;;;4.70;99.90;;;;;;5167718;27;20082;-81
2022/01/05 09:52:34;;;;;;;0.10;0.10;;;4.70;99.90;;;;;;5166906;27;20032;-81
2022/01/05 09:55:02;;;;;;;0.10;0.10;;;4.80;99.90;;;;;;5167453;27;20040;-83
2022/01/05 09:57:29;;;;;;;0.20;0.20;;;4.80;99.90;;;;;;5116093;28;20484;-84
2022/01/05 09:59:57;;;;;;;0.20;0.20;;;4.90;99.90;;;;;;5149898;28;20411;-80
2022/01/05 10:02:24;;;;;;;0.20;0.20;;;6.20;99.90;;;;;;5115997;28;20047;-81
2022/01/05 10:04:52;;;;;;;0.10;0.10;;;5.00;99.90;;;;;;5166356;27;20047;-81
2022/01/05 10:07:19;;;;;;;0.10;0.10;;;5.00;99.90;;;;;;5132979;28;20093;-81
2022/01/05 10:09:46;;;;;;;0.10;0.10;;;5.00;99.90;;;;;;5115481;28;20059;-81
2022/01/05 10:12:13;;;;;;;0.20;0.20;;;5.10;99.90;;;;;;5116071;28;20036;-85
2022/01/05 10:14:41;;;;;;;0.10;0.10;;;5.00;99.90;;;;;;5149685;28;20042;-81
2022/01/05 10:17:22;;;;;;;0.13;0.13;;;5.10;99.90;;;;;;5166828;27;20042;-81
2022/01/05 10:19:58;;;;;;;0.10;0.10;;;5.10;99.90;;;;;;5166726;27;20053;-81
2022/01/05 10:22:39;;;;;;;0.10;0.10;;;5.30;99.90;;;;;;5166645;27;20035;-81
2022/01/05 10:25:13;;;;;;;0.10;0.10;;;5.40;99.90;;;;;;5149367;28;20036;-84
2022/01/05 10:27:40;;;;;;;0.10;0.10;;;5.40;99.90;;;;;;5166334;27;20047;-84
2022/01/05 10:30:13;;;;;;;0.10;0.10;;;5.40;99.90;;;;;;5115333;28;20108;-85
2022/01/05 10:32:43;;;;;;;0.10;0.10;;;5.50;99.90;;;;;;5115264;28;20035;-81
2022/01/05 10:35:13;;;;;;;0.10;0.10;;;5.50;99.90;;;;;;5166421;27;20430;-80
2022/01/05 10:37:42;;;;;;;0.10;0.10;;;5.50;99.90;;;;;;5165722;27;20040;-81
2022/01/05 10:40:20;;;;;;;0.10;0.10;;;5.60;99.90;;;;;;5165842;27;20046;-83
2022/01/05 10:42:55;;;;;;;0.30;0.30;;;5.70;99.90;;;;;;5165573;27;20048;-85
2022/01/05 10:45:43;;;;;;;0.10;0.10;;;5.70;99.90;;;;;;5148531;28;20079;-81
2022/01/05 10:48:16;;;;;;;0.00;0.00;;;5.80;99.90;;;;;;5166321;27;20040;-81
2022/01/05 10:50:44;;;;;;;0.10;0.10;;;6.10;99.90;;;;;;5165720;27;20591;-81
2022/01/05 10:53:18;;;;;;;0.10;0.10;;;5.80;99.90;;;;;;5148857;28;20055;-81
2022/01/05 10:55:47;;;;;;;0.10;0.10;;;5.90;99.90;;;;;;5165847;27;20038;-81
2022/01/05 10:58:16;;;;;;;0.10;0.10;;;5.90;99.90;;;;;;5131704;28;20044;-81
2022/01/05 11:00:54;;;;;;;0.05;0.05;;;5.90;99.90;;;;;;5167500;27;20043;-82
2022/01/05 11:03:39;;;;;;;0.10;0.10;;;6.00;99.90;;;;;;5165946;27;20556;-82
2022/01/05 11:06:15;;;;;;;0.10;0.10;;;6.00;99.90;;;;;;5165579;27;20092;-82
2022/01/05 11:08:52;;;;;;;0.10;0.10;;;6.00;99.90;;;;;;5148222;28;20036;-85
2022/01/05 11:11:42;;;;;;;0.10;0.10;;;5.90;99.90;;;;;;5148173;28;20048;-85
2022/01/05 11:14:16;;;;;;;0.10;0.10;;;6.00;99.90;;;;;;5165664;27;20035;-81
2022/01/05 11:16:45;;;;;;;0.10;0.10;;;6.50;99.90;;;;;;5148004;28;20047;-85
2022/01/05 11:19:19;;;;;;;0.10;0.10;;;6.10;99.90;;;;;;5165708;27;20035;-82
2022/01/05 11:21:59;;;;;;;0.10;0.10;;;6.20;99.90;;;;;;5165475;27;20042;-82
2022/01/05 11:24:28;;;;;;;0.10;0.10;;;6.30;99.90;;;;;;5165272;27;20079;-81
2022/01/05 11:26:55;;;;;;;0.00;0.00;;;6.30;99.90;;;;;;5165040;27;20096;-85
2022/01/05 11:29:22;;;;;;;0.10;0.10;;;6.40;99.90;;;;;;5147983;28;20036;-81
2022/01/05 11:31:50;;;;;;;0.10;0.10;;;6.40;99.90;;;;;;5114310;28;20118;-85
2022/01/05 11:34:16;;;;;;;0.10;0.10;;;6.40;99.90;;;;;;5113983;28;20040;-81
2022/01/05 11:36:43;;;;;;;0.10;0.10;;;6.40;99.90;;;;;;5113683;28;20109;-86
2022/01/05 11:39:10;;;;;;;0.10;0.10;;;6.50;99.90;;;;;;5148116;28;20043;-85
2022/01/05 11:41:43;;;;;;;0.10;0.10;;;7.50;99.90;;;;;;5130376;28;20032;-81
2022/01/05 11:44:10;;;;;;;0.00;0.00;;;6.60;99.90;;;;;;5164227;27;20106;-81
2022/01/05 11:46:37;;;;;;;0.10;0.10;;;6.70;99.90;;;;;;5164968;27;20038;-85
2022/01/05 11:49:07;;;;;;;0.10;0.10;;;6.70;99.90;;;;;;5130473;28;20399;-85
2022/01/05 11:51:45;;;;;;;0.10;0.10;;;6.70;99.90;;;;;;5164921;27;20104;-82
2022/01/05 11:54:18;;;;;;;0.00;0.00;;;6.90;99.90;;;;;;5164651;27;20042;-85
2022/01/05 11:56:48;;;;;;;0.10;0.10;;;6.80;99.90;;;;;;5164541;27;20047;-85
2022/01/05 11:59:33;;;;;;;0.10;0.10;;;6.80;99.90;;;;;;5164496;27;20416;-81
2022/01/05 12:02:11;;;;;;;0.10;0.10;;;6.90;99.90;;;;;;5147353;28;20043;-81
2022/01/05 12:04:56;;;;;;;0.10;0.10;;;6.90;99.90;;;;;;5164467;27;20047;-81
2022/01/05 12:07:46;;;;;;;0.10;0.10;;;6.80;99.90;;;;;;5164721;27;20043;-85
2022/01/05 12:10:18;;;;;;;0.10;0.10;;;6.80;99.90;;;;;;5147072;28;20047;-81
2022/01/05 12:13:06;;;;;;;0.10;0.10;;;6.80;99.90;;;;;;5164151;27;20099;-82
2022/01/05 12:15:39;;;;;;;0.03;0.03;;;6.90;99.90;;;;;;5147661;28;20044;-81
2022/01/05 12:18:06;;;;;;;0.10;0.10;;;6.80;99.90;;;;;;5164153;27;20088;-81
2022/01/05 12:20:37;;;;;;;0.10;0.10;;;6.80;99.90;;;;;;5147602;28;20051;-85
2022/01/05 12:23:31;;;;;;;0.10;0.10;;;6.80;99.90;;;;;;5113349;28;20507;-81
2022/01/05 12:26:04;;;;;;;0.10;0.10;;;6.70;99.90;;;;;;5126204;28;20058;-85
2022/01/05 12:28:40;;;;;;;0.10;0.10;;;6.70;99.90;;;;;;5164550;27;20095;-81
2022/01/05 12:31:09;;;;;;;0.00;0.00;;;6.60;99.90;;;;;;5113252;28;20050;-84
2022/01/05 12:33:51;;;;;;;0.10;0.10;;;6.60;99.90;;;;;;5164379;27;20028;-82
2022/01/05 12:36:34;;;;;;;0.00;0.00;;;6.60;99.90;;;;;;5164133;27;20126;-85
2022/01/05 12:39:08;;;;;;;0.10;0.10;;;6.70;99.90;;;;;;5163940;27;20036;-84
2022/01/05 12:41:42;;;;;;;0.10;0.10;;;6.70;99.90;;;;;;5113531;28;20040;-85
2022/01/05 12:44:13;;;;;;;0.00;0.00;;;6.80;99.90;;;;;;5163751;27;20055;-85
2022/01/05 12:46:49;;;;;;;0.10;0.10;;;6.70;99.90;;;;;;5164240;27;20052;-81
2022/01/05 12:49:26;;;;;;;0.10;0.10;;;6.70;99.90;;;;;;5163850;28;20095;-82
2022/01/05 12:51:54;;;;;;;0.10;0.10;;;6.80;99.90;;;;;;5163565;28;20047;-85
2022/01/05 12:54:30;;;;;;;0.10;0.10;;;6.70;99.90;;;;;;5146593;28;20082;-85
2022/01/05 12:57:00;;;;;;;0.05;0.05;;;6.10;99.90;;;;;;5149285;28;20043;-85
2022/01/05 12:59:32;;;;;;;0.05;0.05;;;6.70;99.90;;;;;;5151081;28;20044;-81
2022/01/05 13:02:08;;;;;;;0.03;0.03;;;6.70;99.90;;;;;;5150683;28;20047;-81
2022/01/05 13:04:36;;;;;;;;;;;6.60;99.90;;;;;;5168617;27;20036;-84
2022/01/05 13:07:04;;;;;;;0.10;0.10;;;6.60;99.90;;;;;;5168023;27;19926;-85
2022/01/05 13:09:37;;;;;;;0.00;0.00;;;6.60;99.90;;;;;;5167851;27;20031;-81